createdAt,value
2023-05-19T00:01:15.316Z,97494.94
2023-05-19T00:03:53.872Z,97486.66
2023-05-19T00:06:25.243Z,97487.47
2023-05-19T00:09:02.772Z,97487.75
2023-05-19T00:11:30.230Z,97472.97
2023-05-19T00:13:59.207Z,97479.91
2023-05-19T00:16:26.984Z,97483.69
2023-05-19T00:18:54.605Z,97479.47
2023-05-19T00:21:21.616Z,97477.28
2023-05-19T00:23:48.735Z,97475.47
2023-05-19T00:26:15.733Z,97476.22
2023-05-19T00:28:53.069Z,97474.34
2023-05-19T00:31:20.735Z,97471.94
2023-05-19T00:33:47.844Z,97472.44
2023-05-19T00:36:15.029Z,97469.03
2023-05-19T00:38:42.138Z,97469.31
2023-05-19T00:41:09.149Z,97467.97
2023-05-19T00:43:36.468Z,97463.91
2023-05-19T00:46:03.574Z,97459.63
2023-05-19T00:48:30.705Z,97457.22
2023-05-19T00:51:04.927Z,97460.69
2023-05-19T00:53:32.700Z,97453.22
2023-05-19T00:56:00.539Z,97449.81
2023-05-19T00:58:30.592Z,97447.22
2023-05-19T01:01:04.600Z,97442.44
2023-05-19T01:03:32.928Z,97442.19
2023-05-19T01:06:04.942Z,97443.31
2023-05-19T01:08:32.913Z,97442.22
2023-05-19T01:11:00.152Z,97437.41
2023-05-19T01:13:30.480Z,97439.84
2023-05-19T01:16:01.499Z,97438.72
2023-05-19T01:18:50.280Z,97436.25
2023-05-19T01:21:36.459Z,97429.53
2023-05-19T01:24:41.084Z,97431.38
2023-05-19T01:27:11.113Z,97433.22
2023-05-19T01:29:44.258Z,97421.91
2023-05-19T01:32:11.931Z,97422.69
2023-05-19T01:34:43.187Z,97432.84
2023-05-19T01:37:10.305Z,97434.16
2023-05-19T01:39:37.316Z,97436.84
2023-05-19T01:42:04.560Z,97435.56
2023-05-19T01:44:31.846Z,97430.03
2023-05-19T01:46:59.155Z,97434.84
2023-05-19T01:49:26.229Z,97434.56
2023-05-19T01:51:54.292Z,97428.31
2023-05-19T01:54:22.520Z,97432.19
2023-05-19T01:56:52.268Z,97435.25
2023-05-19T01:59:37.686Z,97424.59
2023-05-19T02:02:11.143Z,97431.13
2023-05-19T02:04:41.327Z,97421.41
2023-05-19T02:07:21.355Z,97433.66
2023-05-19T02:10:11.259Z,97424.22
2023-05-19T02:12:40.414Z,97423.41
2023-05-19T02:15:18.048Z,97435.44
2023-05-19T02:17:48.473Z,97437.81
2023-05-19T02:20:16.320Z,97434.16
2023-05-19T02:22:43.388Z,97426.63
2023-05-19T02:25:10.887Z,97438.59
2023-05-19T02:27:38.478Z,97429.16
2023-05-19T02:30:06.478Z,97443.09
2023-05-19T02:32:33.608Z,97432.06
2023-05-19T02:35:00.750Z,97425.38
2023-05-19T02:37:31.233Z,97420.56
2023-05-19T02:39:58.396Z,97415.50
2023-05-19T02:42:25.476Z,97426.47
2023-05-19T02:44:55.371Z,97421.09
2023-05-19T02:47:22.630Z,97420.63
2023-05-19T02:49:49.954Z,97418.44
2023-05-19T02:52:17.119Z,97422.69
2023-05-19T02:54:44.204Z,97423.25
2023-05-19T02:57:11.510Z,97414.16
2023-05-19T02:59:38.594Z,97408.22
2023-05-19T03:02:05.834Z,97415.13
2023-05-19T03:04:32.907Z,97409.19
2023-05-19T03:06:59.984Z,97405.50
2023-05-19T03:09:27.140Z,97408.47
2023-05-19T03:11:54.169Z,97413.84
2023-05-19T03:14:24.014Z,97416.47
2023-05-19T03:16:51.544Z,97411.41
2023-05-19T03:19:18.771Z,97406.66
2023-05-19T03:21:46.453Z,97406.72
2023-05-19T03:24:13.854Z,97408.59
2023-05-19T03:26:41.130Z,97411.25
2023-05-19T03:29:08.442Z,97411.53
2023-05-19T03:31:37.364Z,97411.06
2023-05-19T03:34:05.348Z,97410.25
2023-05-19T03:36:32.484Z,97410.31
2023-05-19T03:39:00.465Z,97402.00
2023-05-19T03:41:28.180Z,97410.34
2023-05-19T03:43:56.212Z,97407.84
2023-05-19T03:46:23.614Z,97403.25
2023-05-19T03:49:13.984Z,97406.28
2023-05-19T03:51:59.534Z,97410.50
2023-05-19T03:54:33.612Z,97411.28
2023-05-19T03:57:00.660Z,97412.31
2023-05-19T03:59:28.180Z,97413.63
2023-05-19T04:01:55.256Z,97415.28
2023-05-19T04:04:22.911Z,97416.28
2023-05-19T04:06:50.040Z,97420.56
2023-05-19T04:09:17.109Z,97410.94
2023-05-19T04:11:44.253Z,97419.44
2023-05-19T04:14:11.293Z,97420.53
2023-05-19T04:16:38.350Z,97416.28
2023-05-19T04:19:05.851Z,97416.53
2023-05-19T04:21:33.134Z,97414.66
2023-05-19T04:24:00.249Z,97410.06
2023-05-19T04:26:30.763Z,97414.63
2023-05-19T04:28:57.959Z,97412.81
2023-05-19T04:31:25.101Z,97421.66
2023-05-19T04:33:53.579Z,97423.00
2023-05-19T04:36:21.964Z,97412.28
2023-05-19T04:38:54.981Z,97415.19
2023-05-19T04:41:25.114Z,97412.72
2023-05-19T04:43:52.172Z,97416.53
2023-05-19T04:46:24.498Z,97415.75
2023-05-19T04:48:55.426Z,97412.00
2023-05-19T04:51:22.674Z,97409.31
2023-05-19T04:53:49.830Z,97411.19
2023-05-19T04:56:16.998Z,97409.84
2023-05-19T04:58:45.863Z,97400.25
2023-05-19T05:01:14.009Z,97401.06
2023-05-19T05:03:42.269Z,97393.81
2023-05-19T05:06:11.815Z,97397.59
2023-05-19T05:08:40.594Z,97396.19
2023-05-19T05:11:08.065Z,97393.53
2023-05-19T05:13:35.601Z,97402.13
2023-05-19T05:16:06.539Z,97402.91
2023-05-19T05:18:34.464Z,97397.56
2023-05-19T05:21:01.744Z,97391.16
2023-05-19T05:23:29.550Z,97388.16
2023-05-19T05:25:57.415Z,97377.66
2023-05-19T05:28:24.544Z,97390.78
2023-05-19T05:30:51.586Z,97393.22
2023-05-19T05:33:19.592Z,97388.19
2023-05-19T05:35:47.909Z,97391.66
2023-05-19T05:38:15.258Z,97392.19
2023-05-19T05:40:42.644Z,97391.56
2023-05-19T05:43:10.208Z,97391.69
2023-05-19T05:45:43.986Z,97395.16
2023-05-19T05:48:11.647Z,97404.78
2023-05-19T05:50:39.343Z,97399.16
2023-05-19T05:53:07.549Z,97402.38
2023-05-19T05:55:37.446Z,97395.66
2023-05-19T05:58:06.418Z,97394.88
2023-05-19T06:00:34.740Z,97394.63
2023-05-19T06:03:03.197Z,97397.88
2023-05-19T06:05:31.433Z,97393.34
2023-05-19T06:07:58.614Z,97389.00
2023-05-19T06:10:28.537Z,97389.56
2023-05-19T06:12:56.021Z,97391.66
2023-05-19T06:15:23.929Z,97383.09
2023-05-19T06:17:58.715Z,97390.00
2023-05-19T06:20:25.810Z,97393.00
2023-05-19T06:22:53.156Z,97389.53
2023-05-19T06:25:21.929Z,97391.16
2023-05-19T06:27:50.104Z,97385.81
2023-05-19T06:30:17.288Z,97380.41
2023-05-19T06:32:54.100Z,97380.47
2023-05-19T06:35:21.273Z,97370.84
2023-05-19T06:37:48.553Z,97379.63
2023-05-19T06:40:15.837Z,97384.78
2023-05-19T06:42:43.679Z,97384.91
2023-05-19T06:45:16.754Z,97389.34
2023-05-19T06:47:44.777Z,97394.81
2023-05-19T06:50:12.075Z,97405.31
2023-05-19T06:52:42.012Z,97394.91
2023-05-19T06:55:09.203Z,97391.16
2023-05-19T06:57:38.511Z,97394.06
2023-05-19T07:00:09.799Z,97406.41
2023-05-19T07:02:37.123Z,97401.03
2023-05-19T07:05:04.686Z,97395.38
2023-05-19T07:07:31.948Z,97398.34
2023-05-19T07:09:59.331Z,97397.56
2023-05-19T07:12:27.252Z,97400.25
2023-05-19T07:14:54.732Z,97397.31
2023-05-19T07:17:23.294Z,97395.97
2023-05-19T07:19:50.522Z,97404.78
2023-05-19T07:22:17.753Z,97397.03
2023-05-19T07:24:45.315Z,97398.09
2023-05-19T07:27:12.743Z,97397.56
2023-05-19T07:29:40.156Z,97398.91
2023-05-19T07:32:07.418Z,97395.41
2023-05-19T07:34:35.189Z,97394.88
2023-05-19T07:37:03.531Z,97395.72
2023-05-19T07:39:32.838Z,97392.22
2023-05-19T07:42:01.011Z,97396.50
2023-05-19T07:44:28.375Z,97392.75
2023-05-19T07:46:55.859Z,97389.25
2023-05-19T07:49:23.164Z,97390.63
2023-05-19T07:51:50.734Z,97395.91
2023-05-19T07:54:18.763Z,97398.41
2023-05-19T07:56:45.759Z,97396.44
2023-05-19T07:59:13.404Z,97393.81
2023-05-19T08:01:40.473Z,97397.03
2023-05-19T08:04:10.306Z,97381.38
2023-05-19T08:06:38.933Z,97393.81
2023-05-19T08:09:06.458Z,97386.59
2023-05-19T08:11:33.603Z,97391.69
2023-05-19T08:14:00.690Z,97392.19
2023-05-19T08:16:27.878Z,97388.63
2023-05-19T08:18:55.662Z,97390.88
2023-05-19T08:21:22.890Z,97382.06
2023-05-19T08:23:50.077Z,97390.59
2023-05-19T08:26:17.110Z,97390.84
2023-05-19T08:28:44.354Z,97384.13
2023-05-19T08:31:11.557Z,97385.28
2023-05-19T08:33:39.047Z,97382.31
2023-05-19T08:36:06.717Z,97389.00
2023-05-19T08:38:33.807Z,97384.75
2023-05-19T08:41:00.885Z,97391.13
2023-05-19T08:43:28.058Z,97386.34
2023-05-19T08:45:55.560Z,97382.59
2023-05-19T08:48:22.901Z,97377.25
2023-05-19T08:50:57.653Z,97383.66
2023-05-19T08:53:34.084Z,97385.28
2023-05-19T08:56:04.159Z,97375.66
2023-05-19T08:58:31.493Z,97368.44
2023-05-19T09:00:58.565Z,97364.41
2023-05-19T09:03:26.688Z,97373.47
2023-05-19T09:05:53.837Z,97367.03
2023-05-19T09:08:21.175Z,97371.34
2023-05-19T09:10:48.217Z,97377.78
2023-05-19T09:13:15.303Z,97377.06
2023-05-19T09:15:42.357Z,97383.84
2023-05-19T09:18:11.017Z,97383.88
2023-05-19T09:20:42.510Z,97376.72
2023-05-19T09:23:17.549Z,97380.41
2023-05-19T09:25:51.224Z,97367.88
2023-05-19T09:28:33.358Z,97369.19
2023-05-19T09:31:04.160Z,97370.28
2023-05-19T09:33:33.512Z,97366.97
2023-05-19T09:36:00.755Z,97363.63
2023-05-19T09:38:27.983Z,97357.72
2023-05-19T09:40:58.885Z,97361.22
2023-05-19T09:43:33.772Z,97361.19
2023-05-19T09:46:07.359Z,97353.88
2023-05-19T09:48:35.650Z,97351.25
2023-05-19T09:51:03.406Z,97356.81
2023-05-19T09:53:31.332Z,97350.69
2023-05-19T09:55:58.502Z,97353.53
2023-05-19T09:58:26.578Z,97349.25
2023-05-19T10:00:54.891Z,97357.53
2023-05-19T10:03:23.377Z,97350.06
2023-05-19T10:05:50.669Z,97360.88
2023-05-19T10:08:18.080Z,97351.56
2023-05-19T10:10:48.349Z,97349.31
2023-05-19T10:13:16.582Z,97342.94
2023-05-19T10:15:57.146Z,97353.50
2023-05-19T10:18:27.042Z,97342.78
2023-05-19T10:20:54.373Z,97337.16
2023-05-19T10:23:22.474Z,97333.88
2023-05-19T10:25:50.605Z,97327.13
2023-05-19T10:28:17.796Z,97323.84
2023-05-19T10:30:46.156Z,97331.94
2023-05-19T10:33:16.006Z,97319.59
2023-05-19T10:35:44.190Z,97314.81
2023-05-19T10:38:22.203Z,97307.63
2023-05-19T10:41:07.907Z,97314.00
2023-05-19T10:43:44.103Z,97313.03
2023-05-19T10:46:11.215Z,97314.09
2023-05-19T10:48:38.248Z,97309.19
2023-05-19T10:51:07.297Z,97312.31
2023-05-19T10:53:35.076Z,97309.63
2023-05-19T10:56:07.125Z,97312.19
2023-05-19T10:58:46.549Z,97317.88
2023-05-19T11:01:17.470Z,97318.38
2023-05-19T11:03:52.520Z,97309.25
2023-05-19T11:06:20.925Z,97305.56
2023-05-19T11:08:52.317Z,97303.19
2023-05-19T11:11:19.588Z,97302.00
2023-05-19T11:13:56.396Z,97297.28
2023-05-19T11:16:30.043Z,97299.94
2023-05-19T11:18:59.165Z,97291.38
2023-05-19T11:21:41.863Z,97301.53
2023-05-19T11:24:09.956Z,97291.97
2023-05-19T11:26:41.121Z,97296.50
2023-05-19T11:29:08.101Z,97285.88
2023-05-19T11:31:36.468Z,97296.06
2023-05-19T11:34:05.513Z,97294.72
2023-05-19T11:36:32.621Z,97283.00
2023-05-19T11:39:00.207Z,97287.34
2023-05-19T11:41:28.556Z,97283.81
2023-05-19T11:43:55.653Z,97285.72
2023-05-19T11:46:22.699Z,97270.25
2023-05-19T11:48:50.648Z,97274.84
2023-05-19T11:51:17.690Z,97273.63
2023-05-19T11:53:46.177Z,97274.13
2023-05-19T11:56:13.263Z,97273.34
2023-05-19T11:58:40.405Z,97283.22
2023-05-19T12:01:10.351Z,97288.09
2023-05-19T12:03:37.580Z,97286.63
2023-05-19T12:06:06.035Z,97274.13
2023-05-19T12:08:33.540Z,97274.22
2023-05-19T12:11:00.586Z,97290.25
2023-05-19T12:13:27.630Z,97283.16
2023-05-19T12:16:01.878Z,97275.16
2023-05-19T12:18:36.972Z,97268.66
2023-05-19T12:21:04.704Z,97269.13
2023-05-19T12:23:32.343Z,97262.72
2023-05-19T12:25:59.777Z,97258.72
2023-05-19T12:28:26.883Z,97247.88
2023-05-19T12:30:54.085Z,97264.19
2023-05-19T12:33:22.029Z,97254.63
2023-05-19T12:35:50.057Z,97251.69
2023-05-19T12:38:17.288Z,97242.19
2023-05-19T12:40:44.366Z,97256.53
2023-05-19T12:43:23.913Z,97246.72
2023-05-19T12:45:51.007Z,97255.34
2023-05-19T12:48:18.837Z,97251.44
2023-05-19T12:50:46.008Z,97248.22
2023-05-19T12:53:13.534Z,97247.47
2023-05-19T12:55:44.798Z,97248.41
2023-05-19T12:58:12.535Z,97251.84
2023-05-19T13:00:44.970Z,97250.56
2023-05-19T13:03:19.647Z,97242.84
2023-05-19T13:05:50.522Z,97240.41
2023-05-19T13:08:21.601Z,97242.56
2023-05-19T13:10:49.719Z,97243.88
2023-05-19T13:13:35.503Z,97235.09
2023-05-19T13:16:21.157Z,97245.75
2023-05-19T13:19:06.937Z,97240.44
2023-05-19T13:21:33.997Z,97245.25
2023-05-19T13:24:01.147Z,97238.47
2023-05-19T13:26:28.186Z,97242.38
2023-05-19T13:28:55.290Z,97222.97
2023-05-19T13:31:22.471Z,97230.50
2023-05-19T13:33:49.671Z,97228.63
2023-05-19T13:36:16.788Z,97225.31
2023-05-19T13:38:43.956Z,97219.56
2023-05-19T13:41:11.000Z,97221.41
2023-05-19T13:43:38.112Z,97213.69
2023-05-19T13:46:05.204Z,97225.53
2023-05-19T13:48:32.581Z,97215.25
2023-05-19T13:50:59.684Z,97214.25
2023-05-19T13:53:27.457Z,97210.38
2023-05-19T13:55:56.114Z,97208.44
2023-05-19T13:58:23.441Z,97200.31
2023-05-19T14:00:54.650Z,97208.13
2023-05-19T14:03:22.107Z,97211.75
2023-05-19T14:05:49.228Z,97206.88
2023-05-19T14:08:16.510Z,97201.50
2023-05-19T14:10:43.517Z,97192.44
2023-05-19T14:13:31.348Z,97186.38
2023-05-19T14:15:59.633Z,97178.41
2023-05-19T14:18:26.697Z,97182.19
2023-05-19T14:20:53.768Z,97185.13
2023-05-19T14:23:21.737Z,97182.00
2023-05-19T14:25:48.926Z,97184.09
2023-05-19T14:28:15.911Z,97175.31
2023-05-19T14:30:43.267Z,97188.09
2023-05-19T14:33:10.456Z,97185.06
2023-05-19T14:35:37.624Z,97180.78
2023-05-19T14:38:04.644Z,97180.34
2023-05-19T14:40:31.861Z,97178.34
2023-05-19T14:42:59.120Z,97177.34
2023-05-19T14:45:26.177Z,97178.53
2023-05-19T14:47:53.407Z,97173.97
2023-05-19T14:50:20.860Z,97179.22
2023-05-19T14:52:47.973Z,97169.16
2023-05-19T14:55:15.176Z,97169.16
2023-05-19T14:57:43.521Z,97170.06
2023-05-19T15:00:11.060Z,97178.94
2023-05-19T15:02:38.092Z,97185.94
2023-05-19T15:05:05.600Z,97183.53
2023-05-19T15:07:33.218Z,97178.84
2023-05-19T15:10:01.727Z,97179.53
2023-05-19T15:12:28.953Z,97182.63
2023-05-19T15:14:56.323Z,97177.38
2023-05-19T15:17:23.416Z,97170.41
2023-05-19T15:19:50.563Z,97164.06
2023-05-19T15:22:17.698Z,97166.44
2023-05-19T15:24:44.733Z,97159.91
2023-05-19T15:27:11.762Z,97165.59
2023-05-19T15:29:38.787Z,97154.50
2023-05-19T15:32:06.227Z,97156.00
2023-05-19T15:34:33.210Z,97156.19
2023-05-19T15:37:00.517Z,97150.84
2023-05-19T15:39:27.656Z,97152.00
2023-05-19T15:41:54.622Z,97153.03
2023-05-19T15:44:21.643Z,97143.03
2023-05-19T15:46:48.753Z,97154.06
2023-05-19T15:49:17.912Z,97152.31
2023-05-19T15:51:45.174Z,97155.06
2023-05-19T15:54:12.219Z,97143.38
2023-05-19T15:56:39.306Z,97140.31
2023-05-19T15:59:06.381Z,97135.69
2023-05-19T16:01:33.448Z,97138.59
2023-05-19T16:04:02.224Z,97135.38
2023-05-19T16:06:30.123Z,97133.38
2023-05-19T16:08:57.403Z,97129.31
2023-05-19T16:11:24.477Z,97124.44
2023-05-19T16:13:51.506Z,97125.63
2023-05-19T16:16:18.927Z,97126.06
2023-05-19T16:18:46.031Z,97123.06
2023-05-19T16:21:13.228Z,97121.09
2023-05-19T16:23:40.337Z,97124.78
2023-05-19T16:26:07.633Z,97110.91
2023-05-19T16:28:34.813Z,97108.78
2023-05-19T16:31:01.971Z,97110.28
2023-05-19T16:33:30.066Z,97113.59
2023-05-19T16:35:58.452Z,97114.03
2023-05-19T16:38:26.744Z,97116.31
2023-05-19T16:40:53.875Z,97117.19
2023-05-19T16:43:20.992Z,97113.88
2023-05-19T16:45:48.041Z,97110.09
2023-05-19T16:48:15.238Z,97109.19
2023-05-19T16:50:42.385Z,97104.94
2023-05-19T16:53:09.499Z,97106.28
2023-05-19T16:55:36.554Z,97100.34
2023-05-19T16:58:03.612Z,97095.16
2023-05-19T17:00:30.768Z,97094.50
2023-05-19T17:02:58.082Z,97095.50
2023-05-19T17:05:25.304Z,97090.16
2023-05-19T17:07:52.389Z,97088.63
2023-05-19T17:10:19.464Z,97093.66
2023-05-19T17:12:46.504Z,97091.56
2023-05-19T17:15:13.626Z,97095.91
2023-05-19T17:17:40.873Z,97091.53
2023-05-19T17:20:08.589Z,97096.84
2023-05-19T17:22:35.696Z,97091.50
2023-05-19T17:25:02.791Z,97089.94
2023-05-19T17:27:29.982Z,97091.22
2023-05-19T17:29:57.122Z,97096.47
2023-05-19T17:32:28.240Z,97093.13
2023-05-19T17:34:55.781Z,97095.31
2023-05-19T17:37:25.750Z,97094.53
2023-05-19T17:39:52.958Z,97102.13
2023-05-19T17:42:20.054Z,97100.50
2023-05-19T17:44:47.081Z,97097.81
2023-05-19T17:47:14.146Z,97098.81
2023-05-19T17:49:41.830Z,97101.41
2023-05-19T17:52:09.625Z,97098.09
2023-05-19T17:54:37.009Z,97101.06
2023-05-19T17:57:04.207Z,97096.94
2023-05-19T17:59:31.717Z,97100.63
2023-05-19T18:01:59.172Z,97101.03
2023-05-19T18:04:26.854Z,97107.16
2023-05-19T18:06:54.032Z,97098.81
2023-05-19T18:09:21.580Z,97099.28
2023-05-19T18:11:48.725Z,97099.56
2023-05-19T18:14:15.932Z,97097.78
2023-05-19T18:16:43.072Z,97096.88
2023-05-19T18:19:10.275Z,97090.53
2023-05-19T18:21:37.414Z,97096.31
2023-05-19T18:24:05.475Z,97097.84
2023-05-19T18:26:33.574Z,97098.75
2023-05-19T18:29:04.833Z,97095.13
2023-05-19T18:31:32.471Z,97099.91
2023-05-19T18:33:59.705Z,97093.56
2023-05-19T18:36:26.766Z,97097.78
2023-05-19T18:38:55.218Z,97093.66
2023-05-19T18:41:22.463Z,97094.78
2023-05-19T18:43:49.516Z,97093.44
2023-05-19T18:46:19.741Z,97093.19
2023-05-19T18:48:46.987Z,97094.00
2023-05-19T18:51:15.909Z,97096.09
2023-05-19T18:53:42.978Z,97095.41
2023-05-19T18:56:11.280Z,97098.22
2023-05-19T18:58:38.349Z,97096.97
2023-05-19T19:01:05.577Z,97103.78
2023-05-19T19:03:32.648Z,97096.69
2023-05-19T19:05:59.838Z,97103.97
2023-05-19T19:08:26.918Z,97101.81
2023-05-19T19:10:59.328Z,97110.09
2023-05-19T19:13:27.178Z,97106.44
2023-05-19T19:15:54.186Z,97108.31
2023-05-19T19:18:21.326Z,97116.44
2023-05-19T19:20:48.333Z,97116.47
2023-05-19T19:23:15.489Z,97123.16
2023-05-19T19:25:42.550Z,97124.66
2023-05-19T19:28:10.570Z,97119.13
2023-05-19T19:30:37.648Z,97127.06
2023-05-19T19:33:06.553Z,97119.13
2023-05-19T19:35:34.027Z,97131.75
2023-05-19T19:38:01.375Z,97130.47
2023-05-19T19:40:29.402Z,97131.09
2023-05-19T19:42:56.492Z,97129.84
2023-05-19T19:45:23.878Z,97134.22
2023-05-19T19:47:51.764Z,97136.91
2023-05-19T19:50:19.065Z,97123.97
2023-05-19T19:52:46.280Z,97137.75
2023-05-19T19:55:13.450Z,97131.44
2023-05-19T19:57:40.584Z,97128.41
2023-05-19T20:00:08.632Z,97141.38
2023-05-19T20:02:41.036Z,97130.13
2023-05-19T20:05:13.316Z,97130.53
2023-05-19T20:07:40.333Z,97133.22
2023-05-19T20:10:08.316Z,97129.09
2023-05-19T20:12:35.492Z,97123.88
2023-05-19T20:15:02.523Z,97124.44
2023-05-19T20:17:29.613Z,97124.06
2023-05-19T20:19:56.689Z,97134.88
2023-05-19T20:22:23.781Z,97134.84
2023-05-19T20:24:50.840Z,97128.41
2023-05-19T20:27:17.910Z,97133.78
2023-05-19T20:29:47.113Z,97137.28
2023-05-19T20:32:14.171Z,97120.72
2023-05-19T20:34:41.415Z,97131.44
2023-05-19T20:37:08.630Z,97122.91
2023-05-19T20:39:35.774Z,97122.31
2023-05-19T20:42:02.808Z,97118.09
2023-05-19T20:44:29.895Z,97122.47
2023-05-19T20:46:57.935Z,97114.72
2023-05-19T20:49:25.064Z,97121.53
2023-05-19T20:51:52.495Z,97123.38
2023-05-19T20:54:20.313Z,97120.78
2023-05-19T20:56:47.532Z,97113.53
2023-05-19T20:59:14.694Z,97131.09
2023-05-19T21:01:42.314Z,97126.56
2023-05-19T21:04:09.757Z,97126.38
2023-05-19T21:06:37.045Z,97123.91
2023-05-19T21:09:06.732Z,97119.53
2023-05-19T21:11:34.476Z,97121.66
2023-05-19T21:14:04.557Z,97113.50
2023-05-19T21:16:32.220Z,97111.19
2023-05-19T21:18:59.652Z,97107.50
2023-05-19T21:21:27.049Z,97101.19
2023-05-19T21:23:54.165Z,97116.41
2023-05-19T21:26:22.179Z,97108.94
2023-05-19T21:28:49.237Z,97109.66
2023-05-19T21:31:16.734Z,97115.34
2023-05-19T21:33:43.934Z,97119.91
2023-05-19T21:36:11.067Z,97120.16
2023-05-19T21:38:38.045Z,97118.81
2023-05-19T21:41:05.155Z,97110.56
2023-05-19T21:43:32.169Z,97118.88
2023-05-19T21:45:59.348Z,97121.94
2023-05-19T21:48:26.566Z,97123.88
2023-05-19T21:50:54.669Z,97122.31
2023-05-19T21:53:21.759Z,97122.13
2023-05-19T21:55:48.909Z,97115.81
2023-05-19T21:58:16.297Z,97117.28
2023-05-19T22:00:47.715Z,97117.81
2023-05-19T22:03:15.317Z,97117.97
2023-05-19T22:05:42.423Z,97114.69
2023-05-19T22:08:09.516Z,97113.06
2023-05-19T22:10:37.411Z,97114.69
2023-05-19T22:13:04.481Z,97116.94
2023-05-19T22:15:31.686Z,97112.31
2023-05-19T22:17:58.860Z,97108.31
2023-05-19T22:20:25.977Z,97108.38
2023-05-19T22:22:53.002Z,97105.69
2023-05-19T22:25:20.273Z,97093.25
2023-05-19T22:27:47.381Z,97103.75
2023-05-19T22:30:14.421Z,97102.66
2023-05-19T22:32:41.786Z,97100.81
2023-05-19T22:35:09.050Z,97100.91
2023-05-19T22:37:36.063Z,97095.06
2023-05-19T22:40:03.342Z,97090.63
2023-05-19T22:42:30.341Z,97088.19
2023-05-19T22:44:57.379Z,97089.84
2023-05-19T22:47:24.443Z,97079.31
2023-05-19T22:49:51.506Z,97088.19
2023-05-19T22:52:18.718Z,97087.31
2023-05-19T22:54:45.809Z,97085.78
2023-05-19T22:57:12.850Z,97084.56
2023-05-19T22:59:41.116Z,97083.88
2023-05-19T23:02:08.197Z,97085.59
2023-05-19T23:04:35.649Z,97089.09
2023-05-19T23:07:02.783Z,97088.22
2023-05-19T23:09:30.642Z,97086.94
2023-05-19T23:11:57.748Z,97080.88
2023-05-19T23:14:26.220Z,97069.13
2023-05-19T23:16:53.239Z,97077.69
2023-05-19T23:19:23.444Z,97078.66
2023-05-19T23:21:50.622Z,97079.34
2023-05-19T23:24:17.736Z,97076.66
2023-05-19T23:26:44.746Z,97084.50
2023-05-19T23:29:13.099Z,97079.19
2023-05-19T23:31:41.152Z,97069.75
2023-05-19T23:34:08.283Z,97063.25
2023-05-19T23:36:35.397Z,97060.06
2023-05-19T23:39:02.543Z,97067.16
2023-05-19T23:41:29.630Z,97070.34
2023-05-19T23:43:56.769Z,97057.72
2023-05-19T23:46:23.848Z,97049.72
2023-05-19T23:48:51.261Z,97047.69
2023-05-19T23:51:18.441Z,97042.97
2023-05-19T23:53:45.683Z,97042.78
2023-05-19T23:56:12.796Z,97038.59
2023-05-19T23:58:39.938Z,97040.25
